DW4212 La Cabrera ES current weather conditions

sailwx.info

Wind from 161

Air temperature 11.7° C
Dewpoint -1.5° C

Last reported at 2017-Feb-19 15:49 UTC.
Time now 2017-Feb-19 17:00 UTC

Location: N 40°53' W 003°35'.
View on Google Maps.

See reports from other nearby stations

  
Tides and Currents Weather Stations Pressure Air Temp Water Temp Dewpoint Dewpoint Depression Visibility Wind Speed Wind Dir Waves Ship Positions
date/time (UTC)wind fromknots sea level pressurealtimeterstation pressurevisibilityair tempwater tempwave heightnotes
2017-Feb-19 15:49 161 11.7
2017-Feb-19 15:39 095 12.2
2017-Feb-19 15:29 103 2 gusting 6 12.2
2017-Feb-19 15:19 087 4 gusting 8 12.2
2017-Feb-19 15:09 078 3 gusting 9 12.2
2017-Feb-19 14:59 094 1 gusting 7 12.2
2017-Feb-19 14:49 103 4 gusting 11 12.2
2017-Feb-19 14:39 080 0 gusting 9 12.2
2017-Feb-19 14:29 094 1 gusting 9 11.7
2017-Feb-19 14:19 070 2 gusting 7 11.7
2017-Feb-19 14:09 084 5 gusting 9 11.7
2017-Feb-19 13:59 064 3 gusting 8 11.7
2017-Feb-19 13:49 083 4 gusting 9 12.2
2017-Feb-19 13:39 140 0 gusting 6 11.7
2017-Feb-19 13:29 142 11.7
2017-Feb-19 13:19 142 0 gusting 4 11.7
2017-Feb-19 13:09 093 4 gusting 8 11.7
2017-Feb-19 12:59 130 0 gusting 4 11.7
2017-Feb-19 12:49 182 0 gusting 6 11.1
2017-Feb-19 12:39 138 0 gusting 6 11.1
2017-Feb-19 12:29 102 1 gusting 6 11.1
2017-Feb-19 12:19 092 0 gusting 5 10.6
2017-Feb-19 12:09 109 1 gusting 7 10.6
2017-Feb-19 11:59 132 1 gusting 6 10.0
2017-Feb-19 11:49 092 0 gusting 6 10.0
2017-Feb-19 11:39 094 0 gusting 7 10.0
2017-Feb-19 11:29 108 0 gusting 6 9.4
2017-Feb-19 11:19 063 2 gusting 6 9.4
2017-Feb-19 11:09 163 0 gusting 6 9.4
2017-Feb-19 10:59 088 1 gusting 6 9.4
2017-Feb-19 10:49 087 0 gusting 6 8.9
2017-Feb-19 10:39 087 1 gusting 7 8.9
2017-Feb-19 10:29 076 1 gusting 6 8.9
2017-Feb-19 10:19 073 1 gusting 8 8.3
2017-Feb-19 10:09 129 1 gusting 9 8.3
2017-Feb-19 09:59 065 4 gusting 8 7.8
2017-Feb-19 09:49 090 5 gusting 11 7.8
2017-Feb-19 09:39 101 3 gusting 7 7.2
2017-Feb-19 09:29 083 3 gusting 7 7.2
2017-Feb-19 09:19 102 4 gusting 9 7.2
2017-Feb-19 09:09 079 2 gusting 8 6.7
2017-Feb-19 08:59 098 2 gusting 8 6.7
2017-Feb-19 08:49 088 3 gusting 8 6.7
2017-Feb-19 08:39 086 1 gusting 9 6.1
2017-Feb-19 08:29 082 2 gusting 7 6.1
2017-Feb-19 08:19 092 4 gusting 9 5.6
2017-Feb-19 08:09 076 3 gusting 6 5.0
2017-Feb-19 07:59 071 1 gusting 4 5.0
2017-Feb-19 07:49 094 1 gusting 6 4.4
2017-Feb-19 07:39 090 0 gusting 2 4.4
2017-Feb-19 07:29 089 4.4
2017-Feb-19 07:19 092 0 gusting 6 3.9
2017-Feb-19 07:09 092 4.4
2017-Feb-19 06:59 087 0 gusting 4 4.4
2017-Feb-19 06:49 094 0 gusting 5 4.4
2017-Feb-19 06:39 091 5.0
2017-Feb-19 06:19 089 1 gusting 6 5.6
2017-Feb-19 06:09 094 1 gusting 5 5.6
2017-Feb-19 05:59 093 0 gusting 5 5.6
2017-Feb-19 05:49 078 1 gusting 4 5.0
2017-Feb-19 05:39 076 1 gusting 2 5.0
2017-Feb-19 05:29 080 0 gusting 3 5.0
2017-Feb-19 05:19 089 5.0
2017-Feb-19 05:09 088 0 gusting 4 5.0
2017-Feb-19 04:59 096 0 gusting 6 5.0
2017-Feb-19 04:49 091 5.0
2017-Feb-19 04:39 093 5.0
2017-Feb-19 04:29 078 1 gusting 6 5.0
2017-Feb-19 04:19 082 2 gusting 6 5.0
2017-Feb-19 04:09 076 0 gusting 4 5.0
2017-Feb-19 03:59 080 5.0
2017-Feb-19 03:49 063 5.0
2017-Feb-19 03:39 061 0 gusting 3 5.0
2017-Feb-19 03:29 060 5.0
2017-Feb-19 03:19 060 5.6
2017-Feb-19 03:09 060 6.1
2017-Feb-19 02:59 066 6.1
2017-Feb-19 02:49 039 6.1
2017-Feb-19 02:39 031 0 gusting 3 6.1
2017-Feb-19 02:29 070 0 gusting 4 6.1
2017-Feb-19 02:19 084 0 gusting 6 6.1
2017-Feb-19 02:09 079 1 gusting 5 6.1
2017-Feb-19 01:59 082 0 gusting 6 6.1
2017-Feb-19 01:49 063 0 gusting 4 6.7
2017-Feb-19 01:39 088 0 gusting 5 6.7
2017-Feb-19 01:29 094 6.7
2017-Feb-19 01:19 094 6.7
2017-Feb-19 01:09 093 0 gusting 6 7.2
2017-Feb-19 00:59 088 0 gusting 4 6.7
2017-Feb-19 00:49 088 7.2
2017-Feb-19 00:39 088 7.2
2017-Feb-19 00:29 088 7.2
2017-Feb-19 00:19 088 7.2
2017-Feb-19 00:09 086 0 gusting 3 7.2
2017-Feb-18 23:59 080 0 gusting 1 7.2
2017-Feb-18 23:49 080 7.2
2017-Feb-18 23:39 078 0 gusting 2 7.2
2017-Feb-18 23:29 078 7.2
2017-Feb-18 23:19 173 0 gusting 3 7.2
2017-Feb-18 23:09 184 0 gusting 4 7.2
2017-Feb-18 22:59 184 7.2
2017-Feb-18 22:49 184 0 gusting 3 7.8
2017-Feb-18 22:39 184 7.8
2017-Feb-18 22:29 184 7.8
2017-Feb-18 22:19 184 7.8
2017-Feb-18 22:09 184 7.8
2017-Feb-18 21:59 184 7.8
2017-Feb-18 21:49 184 7.8
2017-Feb-18 21:39 184 0 gusting 3 7.2
2017-Feb-18 21:29 184 7.2
2017-Feb-18 21:19 184 7.2
2017-Feb-18 21:09 184 7.2
2017-Feb-18 20:59 184 7.2
2017-Feb-18 20:49 184 7.2
2017-Feb-18 20:39 184 7.2
2017-Feb-18 20:29 184 7.2
2017-Feb-18 20:19 184 7.2
2017-Feb-18 20:09 184 7.2
2017-Feb-18 19:59 184 7.2
2017-Feb-18 19:49 184 7.2
2017-Feb-18 19:39 184 7.2
2017-Feb-18 19:29 184 7.2
2017-Feb-18 19:19 184 7.8
2017-Feb-18 19:09 184 7.8
2017-Feb-18 18:59 184 8.3
2017-Feb-18 18:49 184 8.3
2017-Feb-18 18:39 184 8.3
2017-Feb-18 18:29 184 8.9
2017-Feb-18 18:19 184 8.9
2017-Feb-18 18:09 184 9.4
2017-Feb-18 17:59 184 9.4
2017-Feb-18 17:49 184 9.4
2017-Feb-18 17:39 184 10.0
2017-Feb-18 17:29 184 10.0
2017-Feb-18 17:19 184 10.0
2017-Feb-18 17:09 184 10.6
2017-Feb-18 16:59 184 10.6
2017-Feb-18 16:49 184 10.6
2017-Feb-18 16:39 184 11.1
2017-Feb-18 16:29 184 11.1
2017-Feb-18 16:19 184 11.1
2017-Feb-18 16:09 184 11.1
2017-Feb-18 15:59 184 11.1
2017-Feb-18 15:49 182 11.1
2017-Feb-18 15:39 181 11.1
2017-Feb-18 15:29 181 11.1
2017-Feb-18 15:19 181 11.1
2017-Feb-18 15:09 181 11.1
2017-Feb-18 14:59 181 0 gusting 3 11.1
2017-Feb-18 14:49 180 0 gusting 5 11.1
2017-Feb-18 14:39 182 1 gusting 6 10.6
2017-Feb-18 14:29 180 0 gusting 4 11.1
2017-Feb-18 14:19 186 0 gusting 4 11.1
2017-Feb-18 14:09 187 1 gusting 5 11.1
2017-Feb-18 13:59 200 11.7
2017-Feb-18 13:49 200 0 gusting 6 11.7
2017-Feb-18 13:39 187 1 gusting 6 11.7
2017-Feb-18 13:29 183 0 gusting 4 11.7
2017-Feb-18 13:19 184 1 gusting 5 11.1
2017-Feb-18 13:09 182 0 gusting 6 11.1
2017-Feb-18 12:59 177 0 gusting 5 11.1
2017-Feb-18 12:49 184 1 gusting 6 11.1
2017-Feb-18 12:39 188 0 gusting 5 11.1
2017-Feb-18 12:29 188 1 gusting 5 11.7
2017-Feb-18 12:19 187 1 gusting 4 11.7
2017-Feb-18 12:09 180 12.2
2017-Feb-18 11:59 188 11.7
2017-Feb-18 11:49 197 12.2
2017-Feb-18 11:39 195 0 gusting 4 11.7
2017-Feb-18 11:29 195 11.7
2017-Feb-18 11:19 195 0 gusting 3 11.7
2017-Feb-18 10:49 195 0 gusting 2 10.6
2017-Feb-18 10:29 195 10.0
2017-Feb-18 10:19 195 10.0
2017-Feb-18 10:09 195 9.4
2017-Feb-18 09:49 331 0 gusting 3 8.3
2017-Feb-18 09:39 348 7.8
2017-Feb-18 09:29 348 7.8
2017-Feb-18 09:19 355 7.2
2017-Feb-18 09:09 355 6.1
2017-Feb-18 08:59 355 5.0
2017-Feb-18 08:49 355 4.4
2017-Feb-18 08:39 350 3.9
2017-Feb-18 08:29 350 3.3
2017-Feb-18 08:19 350 3.3
2017-Feb-18 08:09 350 3.3
2017-Feb-18 07:59 350 3.3
2017-Feb-18 07:49 350 3.3
2017-Feb-18 07:39 350 3.9
2017-Feb-18 07:29 350 4.4
2017-Feb-18 07:19 350 4.4
2017-Feb-18 07:09 350 0 gusting 2 4.4
2017-Feb-18 06:59 350 0 gusting 3 4.4
2017-Feb-18 06:49 350 2 gusting 4 4.4
2017-Feb-18 06:39 350 1 gusting 3 3.3
2017-Feb-18 06:29 350 1 gusting 2 2.8
2017-Feb-18 06:19 350 0 gusting 2 2.2
2017-Feb-18 06:09 350 2.2
2017-Feb-18 06:00 350 2.8
2017-Feb-18 05:49 350 2.8
2017-Feb-18 05:39 350 2.8
2017-Feb-18 05:29 355 2.8
2017-Feb-18 05:19 355 2.8
2017-Feb-18 05:09 355 2.8
2017-Feb-18 04:59 355 0 gusting 4 2.8
2017-Feb-18 04:49 009 0 gusting 2 3.3
2017-Feb-18 04:39 009 3.3
2017-Feb-18 04:29 009 3.3
2017-Feb-18 04:19 009 3.3
2017-Feb-18 04:10 009 3.3
2017-Feb-18 03:59 009 3.3
2017-Feb-18 03:49 009 1 gusting 2 3.3
2017-Feb-18 03:39 009 3.3
2017-Feb-18 03:29 005 0 gusting 1 3.3
2017-Feb-18 03:19 005 3.3
2017-Feb-18 03:09 005 3.3
2017-Feb-18 02:59 005 0 gusting 1 3.9
2017-Feb-18 02:49 005 3.9
2017-Feb-18 02:39 005 3.9
2017-Feb-18 02:29 005 3.9
2017-Feb-18 02:19 005 3.9
2017-Feb-18 02:09 005 3.9
2017-Feb-18 01:59 005 3.9
2017-Feb-18 01:49 005 3.9
2017-Feb-18 01:39 005 3.9
2017-Feb-18 01:29 005 3.9
2017-Feb-18 01:19 005 3.9
2017-Feb-18 01:09 005 3.9
2017-Feb-18 00:59 005 0 gusting 4 3.9
2017-Feb-18 00:49 005 0 gusting 2 3.9
2017-Feb-18 00:39 005 3.9
2017-Feb-18 00:29 005 4.4
2017-Feb-18 00:19 005 0 gusting 2 4.4
2017-Feb-18 00:09 005 4.4
2017-Feb-17 23:59 005 4.4
2017-Feb-17 23:49 005 4.4
2017-Feb-17 23:39 005 5.0
2017-Feb-17 23:29 005 5.0
2017-Feb-17 23:20 005 5.0
2017-Feb-17 23:09 005 5.6
2017-Feb-17 22:59 005 5.6
2017-Feb-17 22:39 005 6.1
2017-Feb-17 22:29 005 6.1
2017-Feb-17 22:19 005 2 gusting 3 6.1
2017-Feb-17 22:09 005 2 gusting 4 6.7
2017-Feb-17 21:59 005 2 gusting 4 6.1
2017-Feb-17 21:49 005 2 gusting 4 6.1
2017-Feb-17 21:39 005 2 gusting 4 6.1
2017-Feb-17 21:29 005 3 gusting 5 6.7
2017-Feb-17 21:19 005 3 gusting 5 6.7
2017-Feb-17 21:09 005 2 gusting 4 6.7
2017-Feb-17 20:59 355 1 gusting 3 6.1
2017-Feb-17 20:49 355 1 gusting 3 6.7
2017-Feb-17 20:39 355 1 gusting 3 6.7
2017-Feb-17 20:29 355 1 gusting 4 6.7
2017-Feb-17 20:19 355 2 gusting 5 6.7
2017-Feb-17 20:09 182 0 gusting 3 6.7
2017-Feb-17 19:59 182 2 gusting 3 6.7
2017-Feb-17 19:49 182 6.7
2017-Feb-17 19:39 182 7.2
2017-Feb-17 19:29 182 7.2
2017-Feb-17 19:19 182 7.2
2017-Feb-17 19:09 182 7.2
2017-Feb-17 18:59 182 7.2
2017-Feb-17 18:49 182 7.8
2017-Feb-17 18:39 182 7.8
2017-Feb-17 18:29 182 8.3
2017-Feb-17 18:19 182 8.9
2017-Feb-17 18:09 182 8.9
2017-Feb-17 17:59 182 8.9
2017-Feb-17 17:49 182 9.4
2017-Feb-17 17:39 182 10.0
2017-Feb-17 17:29 182 10.0
2017-Feb-17 17:19 182 10.6
2017-Feb-17 17:09 182 11.1